sensor_id;sensor_type;location;lat;lon;timestamp;pressure;altitude;pressure_sealevel;temperature;humidity
29169;BME280;16219;42.864;23.360;2023-03-20T00:00:45;96242.94;;;3.68;100.00
29169;BME280;16219;42.864;23.360;2023-03-20T00:03:12;96240.31;;;3.63;100.00
29169;BME280;16219;42.864;23.360;2023-03-20T00:05:40;96232.47;;;3.63;100.00
29169;BME280;16219;42.864;23.360;2023-03-20T00:08:08;96225.94;;;3.61;100.00
29169;BME280;16219;42.864;23.360;2023-03-20T00:10:36;96222.25;;;3.57;100.00
29169;BME280;16219;42.864;23.360;2023-03-20T00:13:05;96224.38;;;3.60;100.00
29169;BME280;16219;42.864;23.360;2023-03-20T00:15:35;96216.25;;;3.56;100.00
29169;BME280;16219;42.864;23.360;2023-03-20T00:18:12;96220.22;;;3.64;100.00
29169;BME280;16219;42.864;23.360;2023-03-20T00:20:40;96219.16;;;3.60;100.00
29169;BME280;16219;42.864;23.360;2023-03-20T00:23:06;96216.81;;;3.58;100.00
29169;BME280;16219;42.864;23.360;2023-03-20T00:25:33;96221.72;;;3.49;100.00
29169;BME280;16219;42.864;23.360;2023-03-20T00:28:01;96211.28;;;3.44;100.00
29169;BME280;16219;42.864;23.360;2023-03-20T00:30:29;96210.72;;;3.37;100.00
29169;BME280;16219;42.864;23.360;2023-03-20T00:32:57;96211.47;;;3.33;100.00
29169;BME280;16219;42.864;23.360;2023-03-20T00:35:28;96205.47;;;3.32;100.00
29169;BME280;16219;42.864;23.360;2023-03-20T00:37:57;96207.31;;;3.32;100.00
29169;BME280;16219;42.864;23.360;2023-03-20T00:40:28;96204.16;;;3.30;100.00
29169;BME280;16219;42.864;23.360;2023-03-20T00:42:59;96205.47;;;3.32;100.00
29169;BME280;16219;42.864;23.360;2023-03-20T00:45:29;96209.66;;;3.38;100.00
29169;BME280;16219;42.864;23.360;2023-03-20T00:47:57;96206.25;;;3.28;100.00
29169;BME280;16219;42.864;23.360;2023-03-20T00:50:29;96201.03;;;3.28;100.00
29169;BME280;16219;42.864;23.360;2023-03-20T00:52:57;96192.38;;;3.27;100.00
29169;BME280;16219;42.864;23.360;2023-03-20T00:55:27;96192.91;;;3.24;100.00
29169;BME280;16219;42.864;23.360;2023-03-20T00:57:56;96190.81;;;3.21;100.00
29169;BME280;16219;42.864;23.360;2023-03-20T01:00:30;96191.31;;;3.18;100.00
29169;BME280;16219;42.864;23.360;2023-03-20T01:03:01;96190.16;;;2.93;100.00
29169;BME280;16219;42.864;23.360;2023-03-20T01:05:31;96196.19;;;3.04;100.00
29169;BME280;16219;42.864;23.360;2023-03-20T01:07:59;96188.09;;;3.06;100.00
29169;BME280;16219;42.864;23.360;2023-03-20T01:10:29;96184.22;;;3.08;100.00
29169;BME280;16219;42.864;23.360;2023-03-20T01:12:59;96186.03;;;3.08;100.00
29169;BME280;16219;42.864;23.360;2023-03-20T01:15:30;96183.16;;;3.04;100.00
29169;BME280;16219;42.864;23.360;2023-03-20T01:17:57;96180.81;;;3.03;100.00
29169;BME280;16219;42.864;23.360;2023-03-20T01:20:26;96184.41;;;2.96;100.00
29169;BME280;16219;42.864;23.360;2023-03-20T01:22:54;96182.34;;;2.98;100.00
29169;BME280;16219;42.864;23.360;2023-03-20T01:25:22;96193.06;;;3.02;100.00
29169;BME280;16219;42.864;23.360;2023-03-20T01:27:50;96189.66;;;3.01;100.00
29169;BME280;16219;42.864;23.360;2023-03-20T01:30:23;96187.00;;;2.96;100.00
29169;BME280;16219;42.864;23.360;2023-03-20T01:32:50;96187.78;;;2.97;100.00
29169;BME280;16219;42.864;23.360;2023-03-20T01:35:21;96191.72;;;2.94;100.00
29169;BME280;16219;42.864;23.360;2023-03-20T01:37:49;96181.75;;;2.86;100.00
29169;BME280;16219;42.864;23.360;2023-03-20T01:40:36;96196.13;;;2.94;100.00
29169;BME280;16219;42.864;23.360;2023-03-20T01:43:12;96193.75;;;2.92;100.00
29169;BME280;16219;42.864;23.360;2023-03-20T01:45:48;96198.44;;;2.85;100.00
29169;BME280;16219;42.864;23.360;2023-03-20T01:48:17;96208.34;;;2.88;100.00
29169;BME280;16219;42.864;23.360;2023-03-20T01:50:44;96210.38;;;2.81;100.00
29169;BME280;16219;42.864;23.360;2023-03-20T01:53:17;96200.91;;;2.70;100.00
29169;BME280;16219;42.864;23.360;2023-03-20T01:55:55;96200.34;;;2.63;100.00
29169;BME280;16219;42.864;23.360;2023-03-20T01:58:31;96188.66;;;2.65;100.00
29169;BME280;16219;42.864;23.360;2023-03-20T02:01:01;96198.81;;;2.67;100.00
29169;BME280;16219;42.864;23.360;2023-03-20T02:03:28;96197.22;;;2.61;100.00
29169;BME280;16219;42.864;23.360;2023-03-20T02:05:59;96195.91;;;2.63;100.00
29169;BME280;16219;42.864;23.360;2023-03-20T02:08:50;96192.53;;;2.63;100.00
29169;BME280;16219;42.864;23.360;2023-03-20T02:11:22;96188.34;;;2.62;100.00
29169;BME280;16219;42.864;23.360;2023-03-20T02:13:50;96180.28;;;2.63;100.00
29169;BME280;16219;42.864;23.360;2023-03-20T02:16:19;96180.28;;;2.63;100.00
29169;BME280;16219;42.864;23.360;2023-03-20T02:19:05;96183.91;;;2.62;100.00
29169;BME280;16219;42.864;23.360;2023-03-20T02:25:08;96183.56;;;2.48;100.00
29169;BME280;16219;42.864;23.360;2023-03-20T02:28:03;96183.88;;;2.57;100.00
29169;BME280;16219;42.864;23.360;2023-03-20T02:30:55;96179.63;;;2.46;100.00
29169;BME280;16219;42.864;23.360;2023-03-20T02:39:47;96189.06;;;2.52;100.00
29169;BME280;16219;42.864;23.360;2023-03-20T02:42:21;96185.09;;;2.44;100.00
29169;BME280;16219;42.864;23.360;2023-03-20T02:44:59;96181.84;;;2.27;100.00
29169;BME280;16219;42.864;23.360;2023-03-20T02:47:36;96184.13;;;2.23;100.00
29169;BME280;16219;42.864;23.360;2023-03-20T02:50:15;96178.22;;;2.33;100.00
29169;BME280;16219;42.864;23.360;2023-03-20T02:52:48;96179.84;;;2.39;100.00
29169;BME280;16219;42.864;23.360;2023-03-20T02:55:23;96178.97;;;2.29;100.00
29169;BME280;16219;42.864;23.360;2023-03-20T02:57:58;96171.59;;;2.20;100.00
29169;BME280;16219;42.864;23.360;2023-03-20T03:00:32;96171.38;;;2.22;100.00
29169;BME280;16219;42.864;23.360;2023-03-20T03:03:05;96172.56;;;2.41;100.00
29169;BME280;16219;42.864;23.360;2023-03-20T03:05:39;96176.50;;;2.44;100.00
29169;BME280;16219;42.864;23.360;2023-03-20T03:08:10;96181.22;;;2.47;100.00
29169;BME280;16219;42.864;23.360;2023-03-20T03:10:43;96177.56;;;2.48;100.00
29169;BME280;16219;42.864;23.360;2023-03-20T03:13:13;96177.78;;;2.41;100.00
29169;BME280;16219;42.864;23.360;2023-03-20T03:15:43;96168.66;;;2.39;100.00
29169;BME280;16219;42.864;23.360;2023-03-20T03:18:15;96168.38;;;2.35;100.00
29169;BME280;16219;42.864;23.360;2023-03-20T03:20:44;96166.06;;;2.12;100.00
29169;BME280;16219;42.864;23.360;2023-03-20T03:23:19;96162.78;;;1.94;100.00
29169;BME280;16219;42.864;23.360;2023-03-20T03:25:49;96173.72;;;1.91;100.00
29169;BME280;16219;42.864;23.360;2023-03-20T03:28:23;96165.25;;;2.06;100.00
29169;BME280;16219;42.864;23.360;2023-03-20T03:30:53;96166.63;;;2.14;100.00
29169;BME280;16219;42.864;23.360;2023-03-20T03:33:24;96177.63;;;2.21;100.00
29169;BME280;16219;42.864;23.360;2023-03-20T03:35:54;96164.84;;;2.19;100.00
29169;BME280;16219;42.864;23.360;2023-03-20T03:38:29;96166.41;;;2.20;100.00
29169;BME280;16219;42.864;23.360;2023-03-20T03:41:09;96156.22;;;2.14;100.00
29169;BME280;16219;42.864;23.360;2023-03-20T03:43:45;96166.63;;;2.14;100.00
29169;BME280;16219;42.864;23.360;2023-03-20T03:46:20;96166.13;;;2.17;100.00
29169;BME280;16219;42.864;23.360;2023-03-20T03:48:54;96154.34;;;2.09;100.00
29169;BME280;16219;42.864;23.360;2023-03-20T03:51:27;96165.63;;;2.20;100.00
29169;BME280;16219;42.864;23.360;2023-03-20T03:54:04;96170.81;;;2.20;100.00
29169;BME280;16219;42.864;23.360;2023-03-20T03:56:36;96163.06;;;2.25;100.00
29169;BME280;16219;42.864;23.360;2023-03-20T03:59:10;96171.91;;;2.24;100.00
29169;BME280;16219;42.864;23.360;2023-03-20T04:01:39;96166.63;;;2.14;100.00
29169;BME280;16219;42.864;23.360;2023-03-20T04:04:11;96169.22;;;2.14;100.00
29169;BME280;16219;42.864;23.360;2023-03-20T04:06:40;96168.19;;;2.15;100.00
29169;BME280;16219;42.864;23.360;2023-03-20T04:09:08;96163.75;;;2.15;100.00
29169;BME280;16219;42.864;23.360;2023-03-20T04:11:36;96158.56;;;2.15;100.00
29169;BME280;16219;42.864;23.360;2023-03-20T04:14:03;96150.44;;;2.12;100.00
29169;BME280;16219;42.864;23.360;2023-03-20T04:16:30;96150.22;;;2.13;100.00
29169;BME280;16219;42.864;23.360;2023-03-20T04:18:58;96145.84;;;2.19;100.00
29169;BME280;16219;42.864;23.360;2023-03-20T04:21:25;96146.59;;;2.14;100.00
29169;BME280;16219;42.864;23.360;2023-03-20T04:23:52;96155.16;;;2.15;100.00
29169;BME280;16219;42.864;23.360;2023-03-20T04:26:21;96155.16;;;2.15;100.00
29169;BME280;16219;42.864;23.360;2023-03-20T04:28:50;96149.19;;;2.14;100.00
29169;BME280;16219;42.864;23.360;2023-03-20T04:31:35;96147.06;;;2.11;100.00
29169;BME280;16219;42.864;23.360;2023-03-20T04:34:21;96149.16;;;2.09;100.00
29169;BME280;16219;42.864;23.360;2023-03-20T04:37:06;96154.66;;;2.13;100.00
29169;BME280;16219;42.864;23.360;2023-03-20T04:39:46;96159.56;;;2.09;100.00
29169;BME280;16219;42.864;23.360;2023-03-20T04:42:13;96158.19;;;2.02;100.00
29169;BME280;16219;42.864;23.360;2023-03-20T04:44:42;96154.06;;;2.06;100.00
29169;BME280;16219;42.864;23.360;2023-03-20T04:47:09;96140.22;;;2.00;100.00
29169;BME280;16219;42.864;23.360;2023-03-20T04:49:39;96160.75;;;1.96;100.00
29169;BME280;16219;42.864;23.360;2023-03-20T04:52:07;96153.34;;;2.15;100.00
29169;BME280;16219;42.864;23.360;2023-03-20T04:54:37;96162.81;;;2.27;100.00
29169;BME280;16219;42.864;23.360;2023-03-20T04:57:05;96169.84;;;2.26;100.00
29169;BME280;16219;42.864;23.360;2023-03-20T04:59:32;96172.00;;;2.34;100.00
29169;BME280;16219;42.864;23.360;2023-03-20T05:02:01;96169.41;;;2.34;100.00
29169;BME280;16219;42.864;23.360;2023-03-20T05:04:28;96174.66;;;2.39;100.00
29169;BME280;16219;42.864;23.360;2023-03-20T05:06:55;96179.88;;;2.44;100.00
29169;BME280;16219;42.864;23.360;2023-03-20T05:09:29;96181.78;;;2.54;100.00
29169;BME280;16219;42.864;23.360;2023-03-20T05:12:00;96175.78;;;2.54;100.00
29169;BME280;16219;42.864;23.360;2023-03-20T05:14:42;96184.22;;;2.66;100.00
29169;BME280;16219;42.864;23.360;2023-03-20T05:17:52;96183.63;;;2.59;100.00
29169;BME280;16219;42.864;23.360;2023-03-20T05:20:47;96192.03;;;2.66;100.00
29169;BME280;16219;42.864;23.360;2023-03-20T05:23:33;96199.09;;;2.70;100.00
29169;BME280;16219;42.864;23.360;2023-03-20T05:26:18;96200.19;;;2.80;100.00
29169;BME280;16219;42.864;23.360;2023-03-20T05:29:07;96199.44;;;2.84;100.00
29169;BME280;16219;42.864;23.360;2023-03-20T05:32:14;96200.06;;;3.01;100.00
29169;BME280;16219;42.864;23.360;2023-03-20T05:35:12;96209.81;;;3.16;100.00
29169;BME280;16219;42.864;23.360;2023-03-20T05:38:17;96203.09;;;3.31;100.00
29169;BME280;16219;42.864;23.360;2023-03-20T05:40:59;96200.81;;;3.39;100.00
29169;BME280;16219;42.864;23.360;2023-03-20T05:43:52;96206.06;;;3.49;100.00
29169;BME280;16219;42.864;23.360;2023-03-20T05:46:48;96202.22;;;3.62;100.00
29169;BME280;16219;42.864;23.360;2023-03-20T05:49:48;96201.72;;;3.70;100.00
29169;BME280;16219;42.864;23.360;2023-03-20T05:52:24;96198.63;;;3.79;100.00
29169;BME280;16219;42.864;23.360;2023-03-20T05:55:11;96202.81;;;3.95;100.00
29169;BME280;16219;42.864;23.360;2023-03-20T05:58:10;96205.72;;;3.98;100.00
29169;BME280;16219;42.864;23.360;2023-03-20T06:00:56;96199.25;;;4.16;100.00
29169;BME280;16219;42.864;23.360;2023-03-20T06:03:42;96203.19;;;4.34;100.00
29169;BME280;16219;42.864;23.360;2023-03-20T06:06:14;96203.19;;;4.39;100.00
29169;BME280;16219;42.864;23.360;2023-03-20T06:08:48;96205.53;;;4.51;100.00
29169;BME280;16219;42.864;23.360;2023-03-20T06:11:16;96195.84;;;4.62;100.00
29169;BME280;16219;42.864;23.360;2023-03-20T06:13:43;96196.41;;;4.64;100.00
29169;BME280;16219;42.864;23.360;2023-03-20T06:16:11;96197.44;;;4.68;100.00
29169;BME280;16219;42.864;23.360;2023-03-20T06:18:38;96196.34;;;4.84;100.00
29169;BME280;16219;42.864;23.360;2023-03-20T06:21:07;96201.34;;;4.81;100.00
29169;BME280;16219;42.864;23.360;2023-03-20T06:23:37;96194.25;;;4.96;100.00
29169;BME280;16219;42.864;23.360;2023-03-20T06:26:06;96194.50;;;5.15;100.00
29169;BME280;16219;42.864;23.360;2023-03-20T06:28:47;96189.50;;;5.14;100.00
29169;BME280;16219;42.864;23.360;2023-03-20T06:31:15;96192.09;;;5.29;100.00
29169;BME280;16219;42.864;23.360;2023-03-20T06:33:42;96178.75;;;5.25;100.00
29169;BME280;16219;42.864;23.360;2023-03-20T06:36:10;96193.91;;;5.44;100.00
29169;BME280;16219;42.864;23.360;2023-03-20T06:38:37;96178.34;;;5.68;100.00
29169;BME280;16219;42.864;23.360;2023-03-20T06:41:11;96181.94;;;5.87;100.00
29169;BME280;16219;42.864;23.360;2023-03-20T06:43:39;96175.09;;;5.96;100.00
29169;BME280;16219;42.864;23.360;2023-03-20T06:46:08;96184.78;;;5.96;100.00
29169;BME280;16219;42.864;23.360;2023-03-20T06:48:35;96181.28;;;6.11;100.00
29169;BME280;16219;42.864;23.360;2023-03-20T06:51:05;96182.75;;;6.27;100.00
29169;BME280;16219;42.864;23.360;2023-03-20T06:53:38;96184.25;;;6.38;100.00
29169;BME280;16219;42.864;23.360;2023-03-20T06:56:10;96163.34;;;6.33;100.00
29169;BME280;16219;42.864;23.360;2023-03-20T06:58:39;96176.56;;;6.52;100.00
29169;BME280;16219;42.864;23.360;2023-03-20T07:01:11;96178.06;;;6.63;100.00
29169;BME280;16219;42.864;23.360;2023-03-20T07:03:39;96182.00;;;6.90;100.00
29169;BME280;16219;42.864;23.360;2023-03-20T07:06:08;96179.44;;;7.09;100.00
29169;BME280;16219;42.864;23.360;2023-03-20T07:08:36;96171.44;;;7.24;100.00
29169;BME280;16219;42.864;23.360;2023-03-20T07:11:04;96172.78;;;7.45;100.00
29169;BME280;16219;42.864;23.360;2023-03-20T07:13:33;96159.88;;;7.49;100.00
29169;BME280;16219;42.864;23.360;2023-03-20T07:16:09;96163.59;;;7.67;100.00
29169;BME280;16219;42.864;23.360;2023-03-20T07:18:39;96166.91;;;7.72;100.00
29169;BME280;16219;42.864;23.360;2023-03-20T07:21:07;96161.41;;;7.93;100.00
29169;BME280;16219;42.864;23.360;2023-03-20T07:23:34;96163.06;;;8.08;100.00
29169;BME280;16219;42.864;23.360;2023-03-20T07:26:02;96164.13;;;8.25;100.00
29169;BME280;16219;42.864;23.360;2023-03-20T07:28:33;96165.19;;;8.43;100.00
29169;BME280;16219;42.864;23.360;2023-03-20T07:31:18;96164.44;;;8.57;100.00
29169;BME280;16219;42.864;23.360;2023-03-20T07:33:46;96162.72;;;8.66;100.00
29169;BME280;16219;42.864;23.360;2023-03-20T07:36:13;96162.16;;;8.69;100.00
29169;BME280;16219;42.864;23.360;2023-03-20T07:38:41;96153.38;;;8.73;100.00
29169;BME280;16219;42.864;23.360;2023-03-20T07:41:09;96161.03;;;8.89;100.00
29169;BME280;16219;42.864;23.360;2023-03-20T07:43:41;96160.56;;;9.00;100.00
29169;BME280;16219;42.864;23.360;2023-03-20T07:46:34;96159.09;;;9.08;100.00
29169;BME280;16219;42.864;23.360;2023-03-20T07:49:02;96159.50;;;9.29;100.00
29169;BME280;16219;42.864;23.360;2023-03-20T07:51:30;96152.88;;;9.45;100.00
29169;BME280;16219;42.864;23.360;2023-03-20T07:53:57;96163.31;;;9.64;100.00
29169;BME280;16219;42.864;23.360;2023-03-20T07:56:25;96156.47;;;9.63;100.00
29169;BME280;16219;42.864;23.360;2023-03-20T07:58:53;96149.81;;;9.80;100.00
29169;BME280;16219;42.864;23.360;2023-03-20T08:01:20;96146.56;;;9.96;100.00
29169;BME280;16219;42.864;23.360;2023-03-20T08:03:47;96148.63;;;10.22;100.00
29169;BME280;16219;42.864;23.360;2023-03-20T08:06:14;96148.31;;;10.37;100.00
29169;BME280;16219;42.864;23.360;2023-03-20T08:08:41;96138.88;;;10.67;100.00
29169;BME280;16219;42.864;23.360;2023-03-20T08:11:09;96132.25;;;10.79;100.00
29169;BME280;16219;42.864;23.360;2023-03-20T08:13:36;96141.34;;;10.95;100.00
29169;BME280;16219;42.864;23.360;2023-03-20T08:16:06;96145.78;;;11.17;100.00
29169;BME280;16219;42.864;23.360;2023-03-20T08:18:33;96141.47;;;11.30;100.00
29169;BME280;16219;42.864;23.360;2023-03-20T08:20:59;96137.97;;;11.43;100.00
29169;BME280;16219;42.864;23.360;2023-03-20T08:23:27;96149.53;;;11.64;100.00
29169;BME280;16219;42.864;23.360;2023-03-20T08:25:54;96136.78;;;11.66;100.00
29169;BME280;16219;42.864;23.360;2023-03-20T08:28:22;96143.78;;;11.71;100.00
29169;BME280;16219;42.864;23.360;2023-03-20T08:30:49;96136.06;;;12.00;99.90
29169;BME280;16219;42.864;23.360;2023-03-20T08:33:18;96140.16;;;12.24;94.16
29169;BME280;16219;42.864;23.360;2023-03-20T08:35:54;96130.94;;;12.30;96.02
29169;BME280;16219;42.864;23.360;2023-03-20T08:38:22;96125.50;;;12.35;93.23
29169;BME280;16219;42.864;23.360;2023-03-20T08:40:49;96133.13;;;12.54;92.55
29169;BME280;16219;42.864;23.360;2023-03-20T08:43:16;96130.44;;;12.63;90.47
29169;BME280;16219;42.864;23.360;2023-03-20T08:45:43;96125.13;;;12.80;88.15
29169;BME280;16219;42.864;23.360;2023-03-20T08:48:10;96122.59;;;12.92;86.47
29169;BME280;16219;42.864;23.360;2023-03-20T08:50:39;96120.19;;;13.08;86.12
29169;BME280;16219;42.864;23.360;2023-03-20T08:53:05;96115.16;;;13.15;82.77
29169;BME280;16219;42.864;23.360;2023-03-20T08:55:32;96114.53;;;13.27;81.15
29169;BME280;16219;42.864;23.360;2023-03-20T08:57:59;96115.84;;;13.42;82.59
29169;BME280;16219;42.864;23.360;2023-03-20T09:00:26;96109.69;;;13.59;77.89
29169;BME280;16219;42.864;23.360;2023-03-20T09:02:53;96106.47;;;13.74;80.59
29169;BME280;16219;42.864;23.360;2023-03-20T09:05:21;96100.41;;;13.94;82.95
29169;BME280;16219;42.864;23.360;2023-03-20T09:07:49;96097.69;;;14.24;78.43
29169;BME280;16219;42.864;23.360;2023-03-20T09:10:16;96102.34;;;14.39;77.15
29169;BME280;16219;42.864;23.360;2023-03-20T09:12:43;96092.50;;;14.61;68.14
29169;BME280;16219;42.864;23.360;2023-03-20T09:15:10;96084.81;;;14.80;64.79
29169;BME280;16219;42.864;23.360;2023-03-20T09:17:37;96086.81;;;15.08;67.35
29169;BME280;16219;42.864;23.360;2023-03-20T09:20:05;96089.72;;;15.27;61.86
29169;BME280;16219;42.864;23.360;2023-03-20T09:22:32;96083.06;;;15.45;61.90
29169;BME280;16219;42.864;23.360;2023-03-20T09:25:01;96085.69;;;15.58;56.84
29169;BME280;16219;42.864;23.360;2023-03-20T09:27:28;96079.50;;;15.66;55.49
29169;BME280;16219;42.864;23.360;2023-03-20T09:29:55;96080.47;;;15.86;58.84
29169;BME280;16219;42.864;23.360;2023-03-20T09:32:22;96070.13;;;15.96;55.46
29169;BME280;16219;42.864;23.360;2023-03-20T09:34:49;96067.25;;;16.02;55.75
29169;BME280;16219;42.864;23.360;2023-03-20T09:37:16;96069.22;;;16.05;54.64
29169;BME280;16219;42.864;23.360;2023-03-20T09:39:43;96072.09;;;16.12;52.69
29169;BME280;16219;42.864;23.360;2023-03-20T09:42:21;96055.81;;;16.29;52.92
29169;BME280;16219;42.864;23.360;2023-03-20T09:44:56;96051.72;;;16.47;51.53
29169;BME280;16219;42.864;23.360;2023-03-20T09:47:32;96039.44;;;16.43;51.71
29169;BME280;16219;42.864;23.360;2023-03-20T09:50:23;96038.19;;;16.53;53.33
29169;BME280;16219;42.864;23.360;2023-03-20T09:53:01;96032.53;;;16.70;52.91
29169;BME280;16219;42.864;23.360;2023-03-20T09:55:34;96027.81;;;16.79;51.23
29169;BME280;16219;42.864;23.360;2023-03-20T09:58:09;96017.56;;;16.81;50.46
29169;BME280;16219;42.864;23.360;2023-03-20T10:00:39;96019.97;;;16.86;50.48
29169;BME280;16219;42.864;23.360;2023-03-20T10:03:16;96012.59;;;16.95;48.98
29169;BME280;16219;42.864;23.360;2023-03-20T10:05:45;96004.34;;;17.01;50.01
29169;BME280;16219;42.864;23.360;2023-03-20T10:08:15;95992.44;;;17.14;48.91
29169;BME280;16219;42.864;23.360;2023-03-20T10:10:50;95995.78;;;17.27;49.80
29169;BME280;16219;42.864;23.360;2023-03-20T10:13:38;95982.53;;;17.49;47.66
29169;BME280;16219;42.864;23.360;2023-03-20T10:16:15;96000.78;;;17.47;49.16
29169;BME280;16219;42.864;23.360;2023-03-20T10:18:46;95996.47;;;17.59;48.79
29169;BME280;16219;42.864;23.360;2023-03-20T10:21:17;95989.44;;;17.70;50.12
29169;BME280;16219;42.864;23.360;2023-03-20T10:23:53;95983.91;;;17.79;50.04
29169;BME280;16219;42.864;23.360;2023-03-20T10:26:23;95981.19;;;17.94;48.42
29169;BME280;16219;42.864;23.360;2023-03-20T10:28:56;95984.38;;;18.04;49.36
29169;BME280;16219;42.864;23.360;2023-03-20T10:31:32;95979.81;;;18.04;48.40
29169;BME280;16219;42.864;23.360;2023-03-20T10:34:13;95974.56;;;18.08;47.61
29169;BME280;16219;42.864;23.360;2023-03-20T10:36:52;95977.22;;;18.08;47.58
29169;BME280;16219;42.864;23.360;2023-03-20T10:39:42;95958.66;;;18.15;46.17
29169;BME280;16219;42.864;23.360;2023-03-20T10:42:17;95964.53;;;18.24;45.89
29169;BME280;16219;42.864;23.360;2023-03-20T10:44:52;95951.91;;;18.21;44.61
29169;BME280;16219;42.864;23.360;2023-03-20T10:47:25;95938.69;;;18.28;45.67
29169;BME280;16219;42.864;23.360;2023-03-20T10:49:57;95940.34;;;18.36;43.67
29169;BME280;16219;42.864;23.360;2023-03-20T10:52:28;95946.81;;;18.35;47.00
29169;BME280;16219;42.864;23.360;2023-03-20T10:54:58;95936.34;;;18.49;45.85
29169;BME280;16219;42.864;23.360;2023-03-20T10:57:28;95942.28;;;18.62;46.19
29169;BME280;16219;42.864;23.360;2023-03-20T10:59:58;95936.25;;;18.69;43.71
29169;BME280;16219;42.864;23.360;2023-03-20T11:02:29;95935.75;;;18.60;43.92
29169;BME280;16219;42.864;23.360;2023-03-20T11:04:58;95920.97;;;18.66;43.78
29169;BME280;16219;42.864;23.360;2023-03-20T11:07:27;95922.41;;;18.83;44.38
29169;BME280;16219;42.864;23.360;2023-03-20T11:10:11;95914.50;;;18.93;43.03
29169;BME280;16219;42.864;23.360;2023-03-20T11:12:42;95917.69;;;19.03;41.78
29169;BME280;16219;42.864;23.360;2023-03-20T11:15:23;95914.81;;;19.15;43.50
29169;BME280;16219;42.864;23.360;2023-03-20T11:17:54;95910.38;;;19.26;43.49
29169;BME280;16219;42.864;23.360;2023-03-20T11:20:23;95907.03;;;19.36;42.90
29169;BME280;16219;42.864;23.360;2023-03-20T11:22:50;95906.00;;;19.44;42.47
29169;BME280;16219;42.864;23.360;2023-03-20T11:25:27;95897.28;;;19.51;42.54
29169;BME280;16219;42.864;23.360;2023-03-20T11:27:56;95889.31;;;19.55;42.12
29169;BME280;16219;42.864;23.360;2023-03-20T11:30:26;95884.81;;;19.62;39.92
29169;BME280;16219;42.864;23.360;2023-03-20T11:32:54;95881.38;;;19.62;40.01
29169;BME280;16219;42.864;23.360;2023-03-20T11:35:28;95879.13;;;19.64;40.04
29169;BME280;16219;42.864;23.360;2023-03-20T11:38:09;95867.56;;;19.60;39.52
29169;BME280;16219;42.864;23.360;2023-03-20T11:40:38;95863.13;;;19.71;41.73
29169;BME280;16219;42.864;23.360;2023-03-20T11:43:10;95856.31;;;19.77;39.01
29169;BME280;16219;42.864;23.360;2023-03-20T11:45:41;95850.69;;;19.89;38.15
29169;BME280;16219;42.864;23.360;2023-03-20T11:48:16;95846.56;;;19.99;38.83
29169;BME280;16219;42.864;23.360;2023-03-20T11:50:46;95842.88;;;20.14;39.27
29169;BME280;16219;42.864;23.360;2023-03-20T11:53:27;95834.91;;;20.25;38.49
29169;BME280;16219;42.864;23.360;2023-03-20T11:56:03;95837.28;;;20.34;38.81
29169;BME280;16219;42.864;23.360;2023-03-20T11:58:31;95833.09;;;20.36;39.63
29169;BME280;16219;42.864;23.360;2023-03-20T12:01:00;95830.78;;;20.35;37.16
29169;BME280;16219;42.864;23.360;2023-03-20T12:03:50;95822.41;;;20.40;38.02
29169;BME280;16219;42.864;23.360;2023-03-20T12:06:21;95825.81;;;20.37;37.21
29169;BME280;16219;42.864;23.360;2023-03-20T12:08:52;95818.91;;;20.32;36.42
29169;BME280;16219;42.864;23.360;2023-03-20T12:11:37;95814.75;;;20.42;36.05
29169;BME280;16219;42.864;23.360;2023-03-20T12:14:15;95808.66;;;20.45;36.86
29169;BME280;16219;42.864;23.360;2023-03-20T12:16:46;95804.81;;;20.46;34.47
29169;BME280;16219;42.864;23.360;2023-03-20T12:19:16;95799.13;;;20.51;36.46
29169;BME280;16219;42.864;23.360;2023-03-20T12:21:47;95803.34;;;20.49;35.13
29169;BME280;16219;42.864;23.360;2023-03-20T12:24:32;95796.88;;;20.57;37.25
29169;BME280;16219;42.864;23.360;2023-03-20T12:27:16;95802.63;;;20.59;36.41
29169;BME280;16219;42.864;23.360;2023-03-20T12:29:48;95798.66;;;20.42;34.90
29169;BME280;16219;42.864;23.360;2023-03-20T12:32:23;95794.53;;;20.48;34.25
29169;BME280;16219;42.864;23.360;2023-03-20T12:34:55;95786.88;;;20.50;34.52
29169;BME280;16219;42.864;23.360;2023-03-20T12:37:25;95794.97;;;20.57;34.64
29169;BME280;16219;42.864;23.360;2023-03-20T12:39:53;95788.06;;;20.60;34.82
29169;BME280;16219;42.864;23.360;2023-03-20T12:42:34;95779.69;;;20.65;34.08
29169;BME280;16219;42.864;23.360;2023-03-20T12:45:10;95775.06;;;20.58;34.00
29169;BME280;16219;42.864;23.360;2023-03-20T12:48:06;95769.53;;;20.37;33.27
29169;BME280;16219;42.864;23.360;2023-03-20T12:50:38;95774.09;;;20.29;34.38
29169;BME280;16219;42.864;23.360;2023-03-20T12:53:19;95771.09;;;20.41;34.67
29169;BME280;16219;42.864;23.360;2023-03-20T12:56:00;95767.38;;;20.53;35.52
29169;BME280;16219;42.864;23.360;2023-03-20T12:58:38;95765.88;;;20.63;33.86
29169;BME280;16219;42.864;23.360;2023-03-20T13:01:10;95758.25;;;20.65;32.69
29169;BME280;16219;42.864;23.360;2023-03-20T13:03:58;95760.50;;;20.59;33.55
29169;BME280;16219;42.864;23.360;2023-03-20T13:06:37;95752.13;;;20.68;34.39
29169;BME280;16219;42.864;23.360;2023-03-20T13:09:39;95750.63;;;20.74;34.94
29169;BME280;16219;42.864;23.360;2023-03-20T13:12:20;95745.28;;;20.81;34.52
29169;BME280;16219;42.864;23.360;2023-03-20T13:14:53;95748.41;;;20.90;32.68
29169;BME280;16219;42.864;23.360;2023-03-20T13:17:28;95743.81;;;21.02;33.02
29169;BME280;16219;42.864;23.360;2023-03-20T13:20:05;95736.59;;;21.13;34.67
29169;BME280;16219;42.864;23.360;2023-03-20T13:22:47;95740.81;;;21.21;34.28
29169;BME280;16219;42.864;23.360;2023-03-20T13:25:27;95722.41;;;21.16;32.37
29169;BME280;16219;42.864;23.360;2023-03-20T13:28:01;95708.66;;;21.28;31.80
29169;BME280;16219;42.864;23.360;2023-03-20T13:30:35;95720.16;;;21.29;34.54